ATH weather

Eleftherios Venizelos International Airport
Athens, Attica, Greece

Public forecast

Using degrees Celsius for public forecast. Weather courtesy of forecast.io.

METAR (pilot weather report)

Retrieved 2018/05/23 06:20 UTC (18 minutes ago):

LGAV 230620Z 02013KT CAVOK 23/12 Q1018 NOSIG

TAF (pilot weather forecast)

Retrieved 2018/05/23 06:12 UTC (26 minutes ago):

TAF TAF LGAV 230500Z 2306/2406 03010KT 9999 FEW030 TEMPO 2306/2310 03013G23KT